Urb Santa Catalina, Puerto Rico
Current Conditions -  °F | °C
As of 1:56 PM on Monday 22 Dec 2014 (Local Time) from TJSJ Reporting Station
Scattered Clouds Scattered Clouds  
Wind Chill: 85°   Ceiling: Unl
Heat Index: 92°   Visibility: 10mi
Dew Point: 74°   Wind: 15mph
Humidity: 69%   Direction: 50°NE
Pressure: 29.99"   Gusts: 22mph
Location:  18.1783°N, 66.1111°W
Report Text: TJSJ 221756Z 05013G19KT 10SM SCT037 29/23 A2999 RMK AO2 SLP154 T02940233 10294 20256 57027
Loading
Personal Weather Stations






























Interactive Weather Map New forecast layout! Learn more

10-Day Weather Forecast

Advertisements
Track Severe Weather on mobile